Time;durP1;ratioP1;P1;durP2;ratioP2;P2;SDS_P1;SDS_P2;PMS_P1;PMS_P2;Temp;Humidity;BMP_temperature;BMP_pressure;BME280_temperature;BME280_humidity;BME280_pressure;Samples;Min_cycle;Max_cycle;Signal;HPM_P1;HPM_P2
2022/10/26 00:06:47;;;;;;;12.23;8.82;;;;;;;;;;5197697;27;20068;-78
2022/10/26 00:24:49;;;;;;;12.07;7.97;;;;;;;;;;5191144;27;20021;-78
2022/10/26 00:39:42;;;;;;;17.20;9.50;;;;;;;;;;5109544;28;20414;-69
2022/10/26 00:42:07;;;;;;;;;;;;;;;;;;5124147;27;20008;-70
2022/10/26 00:44:56;;;;;;;12.68;8.60;;;;;;;;;;5244469;27;19939;-69
2022/10/26 00:47:30;;;;;;;15.95;10.07;;;;;;;;;;5282035;27;19995;-70
2022/10/26 00:49:56;;;;;;;17.50;9.93;;;;;;;;;;5282791;27;20011;-69
2022/10/26 00:52:22;;;;;;;18.48;10.57;;;;;;;;;;5284882;27;20371;-69
2022/10/26 00:54:47;;;;;;;;;;;;;;;;;;5285324;27;20039;-69
2022/10/26 00:57:14;;;;;;;13.48;11.00;;;;;;;;;;5281995;27;19979;-69
2022/10/26 00:59:39;;;;;;;24.33;11.38;;;;;;;;;;5281348;27;20016;-68
2022/10/26 01:02:04;;;;;;;;;;;;;;;;;;5262546;27;20304;-68
2022/10/26 01:04:29;;;;;;;16.45;10.45;;;;;;;;;;5282328;27;19932;-69
2022/10/26 01:06:55;;;;;;;23.65;11.93;;;;;;;;;;5262023;27;19996;-68
2022/10/26 01:09:20;;;;;;;26.15;12.50;;;;;;;;;;5264503;27;20001;-70
2022/10/26 01:11:45;;;;;;;19.67;11.73;;;;;;;;;;5263487;27;20018;-68
2022/10/26 01:14:11;;;;;;;;;;;;;;;;;;5284395;27;20047;-68
2022/10/26 01:16:42;;;;;;;20.37;11.55;;;;;;;;;;5282707;27;19933;-69
2022/10/26 01:19:07;;;;;;;16.42;10.15;;;;;;;;;;5282397;27;20001;-69
2022/10/26 01:21:32;;;;;;;;;;;;;;;;;;5264082;27;20005;-70
2022/10/26 01:24:09;;;;;;;18.33;10.77;;;;;;;;;;5281208;27;19928;-69
2022/10/26 01:26:45;;;;;;;12.02;9.23;;;;;;;;;;5284182;27;20121;-69
2022/10/26 01:29:40;;;;;;;15.43;10.80;;;;;;;;;;5284315;27;19993;-69
2022/10/26 01:32:28;;;;;;;17.48;11.02;;;;;;;;;;5218539;27;20093;-69
2022/10/26 01:35:14;;;;;;;20.50;10.73;;;;;;;;;;5274365;27;20002;-68
2022/10/26 01:38:00;;;;;;;17.85;10.30;;;;;;;;;;5285909;27;19997;-68
2022/10/26 01:40:29;;;;;;;20.17;11.63;;;;;;;;;;5271089;27;20433;-68
2022/10/26 01:42:56;;;;;;;11.43;9.80;;;;;;;;;;5326907;27;20064;-69
2022/10/26 01:45:23;;;;;;;21.05;11.20;;;;;;;;;;5327746;27;20038;-69
2022/10/26 01:47:48;;;;;;;16.25;10.48;;;;;;;;;;5328460;27;20038;-70
2022/10/26 01:50:13;;;;;;;;;;;;;;;;;;5328048;27;20013;-69
2022/10/26 01:52:39;;;;;;;20.33;11.98;;;;;;;;;;5326035;27;20001;-68
2022/10/26 01:55:24;;;;;;;21.12;12.80;;;;;;;;;;5308020;27;20488;-68
2022/10/26 01:57:50;;;;;;;23.62;13.65;;;;;;;;;;5276964;27;20020;-69
2022/10/26 02:00:15;;;;;;;;;;;;;;;;;;5328123;27;20101;-68
2022/10/26 02:02:59;;;;;;;24.60;13.25;;;;;;;;;;5326081;27;19927;-69
2022/10/26 02:05:29;;;;;;;19.83;12.68;;;;;;;;;;5306064;27;20004;-69
2022/10/26 02:07:58;;;;;;;21.17;14.00;;;;;;;;;;5305569;27;20351;-69
2022/10/26 02:10:29;;;;;;;20.58;12.63;;;;;;;;;;5306032;27;20023;-69
2022/10/26 02:13:01;;;;;;;17.30;12.48;;;;;;;;;;5328454;27;20000;-69
2022/10/26 02:15:31;;;;;;;19.37;13.27;;;;;;;;;;5328194;27;20001;-69
2022/10/26 02:17:59;;;;;;;18.30;13.40;;;;;;;;;;5326924;27;20002;-69
2022/10/26 02:20:45;;;;;;;26.33;12.85;;;;;;;;;;5307850;27;20005;-69
2022/10/26 02:23:11;;;;;;;17.40;12.85;;;;;;;;;;5305583;27;20382;-69
2022/10/26 02:25:36;;;;;;;;;;;;;;;;;;5308253;27;20023;-70
2022/10/26 02:28:09;;;;;;;18.67;13.20;;;;;;;;;;5325830;27;19928;-69
2022/10/26 02:30:35;;;;;;;22.10;13.43;;;;;;;;;;5327696;27;20001;-69
2022/10/26 02:33:00;;;;;;;;;;;;;;;;;;5306588;27;20000;-69
2022/10/26 02:35:28;;;;;;;19.02;12.30;;;;;;;;;;5325755;27;20331;-70
2022/10/26 02:37:54;;;;;;;19.33;12.48;;;;;;;;;;5327714;27;20072;-69
2022/10/26 02:40:22;;;;;;;17.95;13.35;;;;;;;;;;5305266;27;20005;-68
2022/10/26 02:42:49;;;;;;;23.52;13.35;;;;;;;;;;5325896;27;20019;-68
2022/10/26 02:45:17;;;;;;;19.05;13.80;;;;;;;;;;5306721;27;20004;-68
2022/10/26 02:47:42;;;;;;;19.55;13.52;;;;;;;;;;5326046;27;20415;-68
2022/10/26 02:50:07;;;;;;;;;;;;;;;;;;5327930;27;20011;-67
2022/10/26 02:52:32;;;;;;;17.90;13.70;;;;;;;;;;5327899;27;20293;-69
2022/10/26 02:54:57;;;;;;;21.06;13.64;;;;;;;;;;5306582;27;20001;-68
2022/10/26 02:57:23;;;;;;;;;;;;;;;;;;5309191;27;20004;-69
2022/10/26 02:59:48;;;;;;;22.48;13.60;;;;;;;;;;5308954;27;19942;-69
2022/10/26 03:02:15;;;;;;;18.17;12.13;;;;;;;;;;5307291;27;20001;-68
2022/10/26 03:04:40;;;;;;;21.45;13.45;;;;;;;;;;5306573;27;20001;-70
2022/10/26 03:07:05;;;;;;;;;;;;;;;;;;5327225;27;20323;-68
2022/10/26 03:09:31;;;;;;;19.85;13.48;;;;;;;;;;5327860;27;19977;-68
2022/10/26 03:11:56;;;;;;;20.65;13.35;;;;;;;;;;5306504;27;19996;-70
2022/10/26 03:14:21;;;;;;;;;;;;;;;;;;5327732;27;20119;-70
2022/10/26 03:16:46;;;;;;;21.37;13.35;;;;;;;;;;5329058;27;19936;-69
2022/10/26 03:19:11;;;;;;;;;;;;;;;;;;5329252;27;20124;-70
2022/10/26 03:21:36;;;;;;;19.08;12.18;;;;;;;;;;5329131;27;19960;-69
2022/10/26 03:24:02;;;;;;;17.70;11.12;;;;;;;;;;5306281;27;20028;-68
2022/10/26 03:26:27;;;;;;;17.55;11.70;;;;;;;;;;5326543;27;20422;-69
2022/10/26 03:28:52;;;;;;;;;;;;;;;;;;5308877;27;20035;-68
2022/10/26 03:31:17;;;;;;;22.90;11.65;;;;;;;;;;5329105;27;19927;-68
2022/10/26 03:33:42;;;;;;;;;;;;;;;;;;5309199;27;20099;-68
2022/10/26 03:36:07;;;;;;;20.90;10.52;;;;;;;;;;5328109;27;19928;-70
2022/10/26 03:38:33;;;;;;;;;;;;;;;;;;5306504;27;20115;-70
2022/10/26 03:40:58;;;;;;;12.73;10.68;;;;;;;;;;5328382;27;19932;-69
2022/10/26 03:43:23;;;;;;;21.92;11.90;;;;;;;;;;5326740;27;20031;-69
2022/10/26 03:45:48;;;;;;;20.70;10.95;;;;;;;;;;5328892;27;20005;-69
2022/10/26 03:48:13;;;;;;;17.15;11.30;;;;;;;;;;5329157;27;20019;-69
2022/10/26 03:50:38;;;;;;;22.30;10.02;;;;;;;;;;5306973;27;20005;-69
2022/10/26 03:53:04;;;;;;;;;;;;;;;;;;5328303;27;20030;-69
2022/10/26 03:55:29;;;;;;;16.25;10.05;;;;;;;;;;5307915;27;19928;-69
2022/10/26 03:57:54;;;;;;;20.60;10.02;;;;;;;;;;5325998;27;20000;-69
2022/10/26 04:00:19;;;;;;;21.60;10.85;;;;;;;;;;5308239;27;20019;-69
2022/10/26 04:02:48;;;;;;;;;;;;;;;;;;5327855;27;20091;-69
2022/10/26 04:05:15;;;;;;;18.52;10.50;;;;;;;;;;5328103;27;20009;-69
2022/10/26 04:07:40;;;;;;;17.55;10.40;;;;;;;;;;5328560;27;20001;-69
2022/10/26 04:10:05;;;;;;;;;;;;;;;;;;5306680;27;20007;-69
2022/10/26 04:12:31;;;;;;;15.65;10.50;;;;;;;;;;5328392;27;19927;-69
2022/10/26 04:14:59;;;;;;;14.52;9.73;;;;;;;;;;5307547;27;20000;-69
2022/10/26 04:17:25;;;;;;;16.95;9.13;;;;;;;;;;5328006;27;20426;-69
2022/10/26 04:19:50;;;;;;;;;;;;;;;;;;5328752;27;20005;-70
2022/10/26 04:22:15;;;;;;;14.77;8.85;;;;;;;;;;5328582;27;19934;-69
2022/10/26 04:24:40;;;;;;;18.02;9.45;;;;;;;;;;5327374;27;20375;-69
2022/10/26 04:27:05;;;;;;;17.87;10.20;;;;;;;;;;5327480;27;20037;-69
2022/10/26 04:29:30;;;;;;;14.07;10.13;;;;;;;;;;5308432;27;20000;-70
2022/10/26 04:31:55;;;;;;;20.08;11.57;;;;;;;;;;5328236;27;20000;-68
2022/10/26 04:34:21;;;;;;;14.40;10.40;;;;;;;;;;5328318;27;20036;-69
2022/10/26 04:36:46;;;;;;;15.40;10.52;;;;;;;;;;5326223;27;19996;-69
2022/10/26 04:39:11;;;;;;;16.62;10.18;;;;;;;;;;5325998;27;20441;-68
2022/10/26 04:41:36;;;;;;;20.52;10.55;;;;;;;;;;5327950;27;20009;-69
2022/10/26 04:44:01;;;;;;;16.90;10.93;;;;;;;;;;5305773;27;20050;-69
2022/10/26 04:46:26;;;;;;;;;;;;;;;;;;5306919;27;20044;-69
2022/10/26 04:48:52;;;;;;;16.55;10.40;;;;;;;;;;5325664;27;20340;-71
2022/10/26 04:51:17;;;;;;;16.60;11.40;;;;;;;;;;5327187;27;20013;-70
2022/10/26 04:53:42;;;;;;;20.77;11.27;;;;;;;;;;5327996;27;20339;-69
2022/10/26 04:56:07;;;;;;;16.87;9.98;;;;;;;;;;5328626;27;20105;-69
2022/10/26 04:58:32;;;;;;;19.67;10.07;;;;;;;;;;5326281;27;20000;-69
2022/10/26 05:00:59;;;;;;;16.98;10.77;;;;;;;;;;5327005;27;20004;-69
2022/10/26 05:03:24;;;;;;;22.70;9.85;;;;;;;;;;5325630;27;20004;-69
2022/10/26 05:05:50;;;;;;;;;;;;;;;;;;5306228;27;20011;-68
2022/10/26 05:08:15;;;;;;;17.75;9.77;;;;;;;;;;5328441;27;19972;-68
2022/10/26 05:10:40;;;;;;;;;;;;;;;;;;5325544;27;20096;-69
2022/10/26 05:13:05;;;;;;;21.12;10.05;;;;;;;;;;5325762;27;20295;-69
2022/10/26 05:15:30;;;;;;;;;;;;;;;;;;5305552;27;20095;-69
2022/10/26 05:18:00;;;;;;;17.23;9.73;;;;;;;;;;5327616;27;20298;-69
2022/10/26 05:20:30;;;;;;;18.48;10.70;;;;;;;;;;5327142;27;20146;-69
2022/10/26 05:22:59;;;;;;;15.48;10.50;;;;;;;;;;5327807;27;20012;-69
2022/10/26 05:25:25;;;;;;;21.33;9.90;;;;;;;;;;5327486;27;20000;-69
2022/10/26 05:27:50;;;;;;;;;;;;;;;;;;5327615;27;20012;-69
2022/10/26 05:30:15;;;;;;;15.68;9.50;;;;;;;;;;5325034;27;19940;-69
2022/10/26 05:32:40;;;;;;;16.60;8.80;;;;;;;;;;5325067;27;20347;-68
2022/10/26 05:35:06;;;;;;;14.85;10.00;;;;;;;;;;5328181;27;20010;-68
2022/10/26 05:37:31;;;;;;;18.42;8.45;;;;;;;;;;5325403;27;20020;-69
2022/10/26 05:39:56;;;;;;;17.48;9.45;;;;;;;;;;5307393;27;20410;-69
2022/10/26 05:42:21;;;;;;;14.95;8.35;;;;;;;;;;5307450;27;20038;-69
2022/10/26 05:44:46;;;;;;;12.48;7.93;;;;;;;;;;5327495;27;20046;-70
2022/10/26 05:47:11;;;;;;;;;;;;;;;;;;5326132;27;20061;-70
2022/10/26 05:49:37;;;;;;;18.48;10.77;;;;;;;;;;5325854;27;19927;-70
2022/10/26 05:52:02;;;;;;;17.48;8.23;;;;;;;;;;5326560;27;20001;-69
2022/10/26 05:54:27;;;;;;;19.50;8.57;;;;;;;;;;5325081;27;20000;-69
2022/10/26 05:56:53;;;;;;;13.23;8.18;;;;;;;;;;5307584;27;20042;-69
2022/10/26 05:59:18;;;;;;;13.52;7.28;;;;;;;;;;5325292;27;20339;-69
2022/10/26 06:02:03;;;;;;;12.48;6.95;;;;;;;;;;5304827;27;20374;-69
2022/10/26 06:04:29;;;;;;;16.37;7.62;;;;;;;;;;5325138;27;20000;-69
2022/10/26 06:06:54;;;;;;;;;;;;;;;;;;5305307;27;20000;-68
2022/10/26 06:09:19;;;;;;;13.10;6.68;;;;;;;;;;5324686;27;19927;-69
2022/10/26 06:11:45;;;;;;;16.62;7.95;;;;;;;;;;5325184;27;20036;-70
2022/10/26 06:14:10;;;;;;;13.50;7.30;;;;;;;;;;5325938;27;20001;-68
2022/10/26 06:16:41;;;;;;;11.88;6.20;;;;;;;;;;5325492;27;20053;-69
2022/10/26 06:19:06;;;;;;;12.23;6.47;;;;;;;;;;5324856;27;20001;-69
2022/10/26 06:21:32;;;;;;;;;;;;;;;;;;5325700;27;20432;-69
2022/10/26 06:23:57;;;;;;;10.10;5.95;;;;;;;;;;5307068;27;19924;-69
2022/10/26 06:26:29;;;;;;;15.77;6.53;;;;;;;;;;5307488;27;19996;-70
2022/10/26 06:29:16;;;;;;;17.70;7.12;;;;;;;;;;5307502;27;20100;-69
2022/10/26 06:31:41;;;;;;;18.02;6.55;;;;;;;;;;5326347;27;20432;-69
2022/10/26 06:34:09;;;;;;;10.15;6.03;;;;;;;;;;5329033;27;19996;-70
2022/10/26 06:36:35;;;;;;;13.77;5.82;;;;;;;;;;5329187;27;20004;-69
2022/10/26 06:39:00;;;;;;;;;;;;;;;;;;5326569;27;20017;-69
2022/10/26 06:41:26;;;;;;;15.77;6.05;;;;;;;;;;5329039;27;20011;-69
2022/10/26 06:43:51;;;;;;;;;;;;;;;;;;5308887;27;20119;-69
2022/10/26 06:46:31;;;;;;;10.50;5.85;;;;;;;;;;5328927;27;19927;-70
2022/10/26 06:49:04;;;;;;;16.75;6.65;;;;;;;;;;5329004;27;20011;-69
2022/10/26 06:51:29;;;;;;;10.13;6.10;;;;;;;;;;5329128;27;20001;-70
2022/10/26 06:53:55;;;;;;;;;;;;;;;;;;5328900;27;20001;-69
2022/10/26 06:56:20;;;;;;;14.20;6.60;;;;;;;;;;5326044;27;19934;-70
2022/10/26 06:58:47;;;;;;;13.00;6.03;;;;;;;;;;5327350;27;20000;-69
2022/10/26 07:01:12;;;;;;;10.48;6.18;;;;;;;;;;5306695;27;20047;-68
2022/10/26 07:03:37;;;;;;;;;;;;;;;;;;5326167;27;20001;-69
2022/10/26 07:06:03;;;;;;;14.52;6.78;;;;;;;;;;5326103;27;19955;-68
2022/10/26 07:08:30;;;;;;;11.25;6.65;;;;;;;;;;5305844;27;20011;-69
2022/10/26 07:10:55;;;;;;;11.68;6.57;;;;;;;;;;5325935;27;20008;-69
2022/10/26 07:13:20;;;;;;;;;;;;;;;;;;5328062;27;20011;-69
2022/10/26 07:15:46;;;;;;;16.00;7.50;;;;;;;;;;5306081;27;20265;-69
2022/10/26 07:18:12;;;;;;;15.90;7.47;;;;;;;;;;5306242;27;20066;-69
2022/10/26 07:20:37;;;;;;;;;;;;;;;;;;5325971;27;20368;-70
2022/10/26 07:23:05;;;;;;;10.00;6.87;;;;;;;;;;5306542;27;19993;-69
2022/10/26 07:25:30;;;;;;;12.95;7.22;;;;;;;;;;5328730;27;20005;-69
2022/10/26 07:27:56;;;;;;;;;;;;;;;;;;5329237;27;20289;-68
2022/10/26 07:30:21;;;;;;;18.52;9.95;;;;;;;;;;5328187;27;19928;-69
2022/10/26 07:32:46;;;;;;;12.13;6.60;;;;;;;;;;5305676;27;20008;-69
2022/10/26 07:35:11;;;;;;;12.93;6.50;;;;;;;;;;5305846;27;20425;-69
2022/10/26 07:37:36;;;;;;;12.55;6.40;;;;;;;;;;5327673;27;20001;-70
2022/10/26 07:40:01;;;;;;;;;;;;;;;;;;5326270;27;20029;-69
2022/10/26 07:42:27;;;;;;;10.63;5.90;;;;;;;;;;5328232;27;19928;-70
2022/10/26 07:44:52;;;;;;;13.30;6.30;;;;;;;;;;5308145;27;20421;-69
2022/10/26 07:47:17;;;;;;;9.05;5.75;;;;;;;;;;5328437;27;20014;-69
2022/10/26 07:49:42;;;;;;;10.85;7.15;;;;;;;;;;5325863;27;20408;-71
2022/10/26 07:52:08;;;;;;;17.40;7.05;;;;;;;;;;5328242;27;20047;-69
2022/10/26 07:54:33;;;;;;;11.68;6.72;;;;;;;;;;5328339;27;20312;-69
2022/10/26 07:56:58;;;;;;;12.80;6.05;;;;;;;;;;5326334;27;20044;-69
2022/10/26 07:59:24;;;;;;;12.52;6.97;;;;;;;;;;5307453;27;20043;-69
2022/10/26 08:01:49;;;;;;;12.00;5.65;;;;;;;;;;5326172;27;20379;-68
2022/10/26 08:04:14;;;;;;;18.15;6.18;;;;;;;;;;5328729;27;20034;-68
2022/10/26 08:06:39;;;;;;;12.00;7.07;;;;;;;;;;5305647;27;20088;-68
2022/10/26 08:09:05;;;;;;;12.02;6.32;;;;;;;;;;5305825;27;20340;-68
2022/10/26 08:11:30;;;;;;;9.82;6.15;;;;;;;;;;5325482;27;20044;-69
2022/10/26 08:13:55;;;;;;;13.85;6.22;;;;;;;;;;5327754;27;20019;-69
2022/10/26 08:16:20;;;;;;;19.02;6.35;;;;;;;;;;5327880;27;20031;-71
2022/10/26 08:18:49;;;;;;;12.57;5.65;;;;;;;;;;5328470;27;20012;-70
2022/10/26 08:21:14;;;;;;;9.23;6.32;;;;;;;;;;5326304;27;20005;-69
2022/10/26 08:23:40;;;;;;;11.70;5.90;;;;;;;;;;5307905;27;20393;-69
2022/10/26 08:26:06;;;;;;;16.90;5.75;;;;;;;;;;5326658;27;20405;-69
2022/10/26 08:28:31;;;;;;;10.23;5.60;;;;;;;;;;5307434;27;20000;-70
2022/10/26 08:30:58;;;;;;;8.48;4.90;;;;;;;;;;5328086;27;20044;-70
2022/10/26 08:33:24;;;;;;;8.32;5.82;;;;;;;;;;5326597;27;20044;-69
2022/10/26 08:35:54;;;;;;;14.48;5.50;;;;;;;;;;5325216;27;20012;-69
2022/10/26 08:38:19;;;;;;;10.85;4.80;;;;;;;;;;5305244;27;20017;-69
2022/10/26 08:40:44;;;;;;;10.82;4.57;;;;;;;;;;5326788;27;20060;-69
2022/10/26 08:43:09;;;;;;;12.02;5.30;;;;;;;;;;5327413;27;20478;-69
2022/10/26 08:45:37;;;;;;;9.45;4.40;;;;;;;;;;5327867;27;20005;-69
2022/10/26 08:48:10;;;;;;;10.23;4.90;;;;;;;;;;5325283;27;20031;-69
2022/10/26 08:50:43;;;;;;;12.60;4.50;;;;;;;;;;5327772;27;19997;-70
2022/10/26 08:53:11;;;;;;;8.15;4.20;;;;;;;;;;5325819;27;20009;-69
2022/10/26 08:55:42;;;;;;;14.00;4.55;;;;;;;;;;5327322;27;20374;-69
2022/10/26 08:58:18;;;;;;;13.85;4.32;;;;;;;;;;5325916;27;20008;-68
2022/10/26 09:00:46;;;;;;;7.93;4.12;;;;;;;;;;5327553;27;20011;-69
2022/10/26 09:03:14;;;;;;;8.90;3.90;;;;;;;;;;5326017;27;20027;-69
2022/10/26 09:06:00;;;;;;;13.00;4.22;;;;;;;;;;5306187;27;20000;-69
2022/10/26 09:08:41;;;;;;;11.32;4.53;;;;;;;;;;5324376;27;20011;-68
2022/10/26 09:11:06;;;;;;;7.28;3.90;;;;;;;;;;5324707;27;20083;-69
2022/10/26 09:13:37;;;;;;;9.80;3.90;;;;;;;;;;5325277;27;20044;-69
2022/10/26 09:16:02;;;;;;;10.73;3.90;;;;;;;;;;5325218;27;20418;-68
2022/10/26 09:18:39;;;;;;;13.20;4.57;;;;;;;;;;5326105;27;20001;-69
2022/10/26 09:21:23;;;;;;;12.45;4.60;;;;;;;;;;5326728;27;19993;-69
2022/10/26 09:23:54;;;;;;;6.95;3.60;;;;;;;;;;5324884;27;20013;-69
2022/10/26 09:26:28;;;;;;;10.75;3.50;;;;;;;;;;5327513;27;19992;-69
2022/10/26 09:28:54;;;;;;;10.57;4.28;;;;;;;;;;5304840;27;20046;-69
2022/10/26 09:31:19;;;;;;;11.80;4.53;;;;;;;;;;5325585;27;20387;-69
2022/10/26 09:33:45;;;;;;;14.23;3.70;;;;;;;;;;5324700;27;20015;-70
2022/10/26 09:36:18;;;;;;;9.77;3.20;;;;;;;;;;5324440;27;20013;-70
2022/10/26 09:38:46;;;;;;;9.77;3.80;;;;;;;;;;5305908;27;20066;-69
2022/10/26 09:41:11;;;;;;;7.32;3.80;;;;;;;;;;5327419;27;20056;-69
2022/10/26 09:43:36;;;;;;;9.90;3.83;;;;;;;;;;5328046;27;20011;-69
2022/10/26 09:46:01;;;;;;;11.38;4.53;;;;;;;;;;5324862;27;20028;-69
2022/10/26 09:48:32;;;;;;;12.77;3.90;;;;;;;;;;5326439;27;19997;-71
2022/10/26 09:50:59;;;;;;;9.70;4.15;;;;;;;;;;5327663;27;20334;-70
2022/10/26 09:53:24;;;;;;;12.63;4.47;;;;;;;;;;5327283;27;19997;-70
2022/10/26 09:55:52;;;;;;;13.73;5.18;;;;;;;;;;5304902;27;19996;-68
2022/10/26 09:58:24;;;;;;;7.55;3.47;;;;;;;;;;5305081;27;20364;-69
2022/10/26 10:00:50;;;;;;;9.40;3.87;;;;;;;;;;5328140;27;20363;-70
2022/10/26 10:03:20;;;;;;;10.88;3.30;;;;;;;;;;5326214;27;20007;-69
2022/10/26 10:05:46;;;;;;;9.40;3.58;;;;;;;;;;5328038;27;20087;-69
2022/10/26 10:08:17;;;;;;;13.18;3.42;;;;;;;;;;5328683;27;20003;-69
2022/10/26 10:11:01;;;;;;;11.68;5.57;;;;;;;;;;5326322;27;20036;-68
2022/10/26 10:13:28;;;;;;;10.38;3.40;;;;;;;;;;5327992;27;20376;-68
2022/10/26 10:15:55;;;;;;;8.18;3.60;;;;;;;;;;5307024;27;20060;-68
2022/10/26 10:18:21;;;;;;;9.40;3.37;;;;;;;;;;5328914;27;20337;-69
2022/10/26 10:20:50;;;;;;;6.50;3.80;;;;;;;;;;5326273;27;20016;-69
2022/10/26 10:23:26;;;;;;;15.95;3.83;;;;;;;;;;5326556;27;20019;-68
2022/10/26 10:26:03;;;;;;;10.20;3.33;;;;;;;;;;5326587;27;20042;-70
2022/10/26 10:28:28;;;;;;;10.80;3.83;;;;;;;;;;5326865;27;20000;-68
2022/10/26 10:30:56;;;;;;;9.05;3.53;;;;;;;;;;5326361;27;20040;-70
2022/10/26 10:33:21;;;;;;;11.43;3.47;;;;;;;;;;5325795;27;20007;-71
2022/10/26 10:35:48;;;;;;;11.60;3.45;;;;;;;;;;5325643;27;20108;-68
2022/10/26 10:38:16;;;;;;;12.85;3.80;;;;;;;;;;5328085;27;20077;-69
2022/10/26 10:40:48;;;;;;;11.32;3.97;;;;;;;;;;5328201;27;20009;-69
2022/10/26 10:43:14;;;;;;;13.62;3.60;;;;;;;;;;5328830;27;20381;-69
2022/10/26 10:45:40;;;;;;;12.37;3.60;;;;;;;;;;5307611;27;20054;-70
2022/10/26 10:48:11;;;;;;;9.45;3.47;;;;;;;;;;5326566;27;20376;-70
2022/10/26 10:50:36;;;;;;;10.00;4.07;;;;;;;;;;5327870;27;20011;-69
2022/10/26 10:53:12;;;;;;;13.77;4.05;;;;;;;;;;5305890;27;20016;-69
2022/10/26 10:55:37;;;;;;;9.45;3.75;;;;;;;;;;5328079;27;20005;-69
2022/10/26 10:58:22;;;;;;;11.02;3.95;;;;;;;;;;5326375;27;20038;-68
2022/10/26 11:00:50;;;;;;;7.22;3.33;;;;;;;;;;5327362;27;20009;-69
2022/10/26 11:03:27;;;;;;;11.07;3.53;;;;;;;;;;5327391;27;20046;-68
2022/10/26 11:05:52;;;;;;;13.65;4.22;;;;;;;;;;5329077;27;20024;-68
2022/10/26 11:08:37;;;;;;;11.00;3.45;;;;;;;;;;5327336;27;20000;-70
2022/10/26 11:11:02;;;;;;;10.75;2.97;;;;;;;;;;5328188;27;20064;-69
2022/10/26 11:13:37;;;;;;;7.57;3.10;;;;;;;;;;5325752;27;20008;-69
2022/10/26 11:16:04;;;;;;;8.57;3.72;;;;;;;;;;5327272;27;20096;-69
2022/10/26 11:18:42;;;;;;;7.18;3.20;;;;;;;;;;5328710;27;20421;-69
2022/10/26 11:21:17;;;;;;;9.55;3.30;;;;;;;;;;5328424;27;20010;-69
2022/10/26 11:23:46;;;;;;;11.48;4.12;;;;;;;;;;5328872;27;20023;-69
2022/10/26 11:26:13;;;;;;;13.55;3.42;;;;;;;;;;5327730;27;20004;-69
2022/10/26 11:28:48;;;;;;;10.00;4.05;;;;;;;;;;5326117;27;20001;-69
2022/10/26 11:31:17;;;;;;;8.95;2.95;;;;;;;;;;5328426;27;20406;-70
2022/10/26 11:33:45;;;;;;;8.25;3.05;;;;;;;;;;5325901;27;20012;-68
2022/10/26 11:36:16;;;;;;;8.02;2.92;;;;;;;;;;5327539;27;20004;-70
2022/10/26 11:38:56;;;;;;;7.85;3.08;;;;;;;;;;5326491;27;20020;-69
2022/10/26 11:41:44;;;;;;;6.87;3.40;;;;;;;;;;5325725;27;20004;-69
2022/10/26 11:44:28;;;;;;;6.80;2.50;;;;;;;;;;5327867;27;20026;-68
2022/10/26 11:46:55;;;;;;;8.18;2.80;;;;;;;;;;5327489;27;20052;-69
2022/10/26 11:49:30;;;;;;;8.77;3.05;;;;;;;;;;5304994;27;20307;-69
2022/10/26 11:51:55;;;;;;;8.25;2.58;;;;;;;;;;5326739;27;20013;-70
2022/10/26 11:54:23;;;;;;;6.60;2.75;;;;;;;;;;5327189;27;20000;-69
2022/10/26 11:56:50;;;;;;;7.35;2.78;;;;;;;;;;5325544;27;20141;-70
2022/10/26 11:59:18;;;;;;;6.43;2.65;;;;;;;;;;5327674;27;20004;-69
2022/10/26 12:01:44;;;;;;;10.95;3.00;;;;;;;;;;5328009;27;20036;-70
2022/10/26 12:04:09;;;;;;;6.53;2.95;;;;;;;;;;5328235;27;20318;-69
2022/10/26 12:06:34;;;;;;;8.85;2.90;;;;;;;;;;5327655;27;20302;-68
2022/10/26 12:09:14;;;;;;;11.65;2.87;;;;;;;;;;5325314;27;20001;-69
2022/10/26 12:11:40;;;;;;;14.23;3.55;;;;;;;;;;5327922;27;19989;-69
2022/10/26 12:14:18;;;;;;;10.52;2.87;;;;;;;;;;5327519;27;20000;-67
2022/10/26 12:16:48;;;;;;;9.55;3.00;;;;;;;;;;5326035;27;20037;-68
2022/10/26 12:19:19;;;;;;;8.23;2.55;;;;;;;;;;5326091;27;20072;-68
2022/10/26 12:21:45;;;;;;;5.87;2.67;;;;;;;;;;5328158;27;20005;-68
2022/10/26 12:24:22;;;;;;;10.02;3.75;;;;;;;;;;5307200;27;20018;-68
2022/10/26 12:26:50;;;;;;;5.45;2.45;;;;;;;;;;5307901;27;20014;-69
2022/10/26 12:29:27;;;;;;;8.52;3.58;;;;;;;;;;5327684;27;20314;-68
2022/10/26 12:31:52;;;;;;;6.12;2.53;;;;;;;;;;5326025;27;20042;-68
2022/10/26 12:34:22;;;;;;;8.88;4.07;;;;;;;;;;5307567;27;20371;-68
2022/10/26 12:36:49;;;;;;;11.30;3.62;;;;;;;;;;5326394;27;20020;-70
2022/10/26 12:39:40;;;;;;;8.90;2.75;;;;;;;;;;5305609;27;20023;-69
2022/10/26 12:42:08;;;;;;;13.48;3.15;;;;;;;;;;5323751;27;20001;-69
2022/10/26 12:44:54;;;;;;;7.70;3.22;;;;;;;;;;5325229;27;20027;-68
2022/10/26 12:47:31;;;;;;;8.80;3.30;;;;;;;;;;5312678;27;20038;-69
2022/10/26 12:50:00;;;;;;;11.12;3.53;;;;;;;;;;5307901;27;20016;-69
2022/10/26 12:52:28;;;;;;;9.57;3.85;;;;;;;;;;5326233;27;20339;-70
2022/10/26 12:55:06;;;;;;;8.98;3.12;;;;;;;;;;5305631;27;20026;-70
2022/10/26 12:57:54;;;;;;;12.00;3.35;;;;;;;;;;5327576;27;20053;-69
2022/10/26 13:00:23;;;;;;;12.82;3.25;;;;;;;;;;5324862;27;20020;-70
2022/10/26 13:02:48;;;;;;;7.35;3.35;;;;;;;;;;5324676;27;20038;-70
2022/10/26 13:05:39;;;;;;;8.00;3.62;;;;;;;;;;5328070;27;20000;-70
2022/10/26 13:08:09;;;;;;;5.50;2.80;;;;;;;;;;5325413;27;20107;-69
2022/10/26 13:10:35;;;;;;;7.07;3.10;;;;;;;;;;5325558;27;20005;-71
2022/10/26 13:13:04;;;;;;;12.27;2.95;;;;;;;;;;5305906;27;20005;-68
2022/10/26 13:15:32;;;;;;;11.20;2.75;;;;;;;;;;5327736;27;20000;-69
2022/10/26 13:18:16;;;;;;;12.32;3.35;;;;;;;;;;5327377;27;20011;-68
2022/10/26 13:21:00;;;;;;;6.15;3.03;;;;;;;;;;5327724;27;20005;-70
2022/10/26 13:23:26;;;;;;;8.35;2.70;;;;;;;;;;5304977;27;20338;-71
2022/10/26 13:26:03;;;;;;;8.60;2.58;;;;;;;;;;5324691;27;20334;-70
2022/10/26 13:28:41;;;;;;;8.73;2.83;;;;;;;;;;5327437;27;19986;-69
2022/10/26 13:31:25;;;;;;;9.02;2.55;;;;;;;;;;5327249;27;19993;-70
2022/10/26 13:33:51;;;;;;;8.10;2.60;;;;;;;;;;5307432;27;20390;-69
2022/10/26 13:36:28;;;;;;;10.35;2.65;;;;;;;;;;5325103;27;20000;-68
2022/10/26 13:38:53;;;;;;;7.50;2.17;;;;;;;;;;5305001;27;20044;-69
2022/10/26 13:41:24;;;;;;;7.37;2.37;;;;;;;;;;5324752;27;20031;-70
2022/10/26 13:43:50;;;;;;;9.10;2.70;;;;;;;;;;5307308;27;20043;-68
2022/10/26 13:46:21;;;;;;;11.10;2.67;;;;;;;;;;5324933;27;20127;-68
2022/10/26 13:48:46;;;;;;;6.47;2.58;;;;;;;;;;5305592;27;19990;-68
2022/10/26 13:51:19;;;;;;;8.50;2.37;;;;;;;;;;5325435;27;20150;-68
2022/10/26 13:53:45;;;;;;;10.95;3.22;;;;;;;;;;5327416;27;20005;-68
2022/10/26 13:56:28;;;;;;;7.32;2.25;;;;;;;;;;5325197;27;20056;-69
2022/10/26 13:58:57;;;;;;;6.78;2.62;;;;;;;;;;5324700;27;20109;-68
2022/10/26 14:01:24;;;;;;;11.52;3.17;;;;;;;;;;5327299;27;20354;-70
2022/10/26 14:03:50;;;;;;;6.50;2.15;;;;;;;;;;5326838;27;20001;-70
2022/10/26 14:06:18;;;;;;;6.35;2.60;;;;;;;;;;5324865;27;20045;-69
2022/10/26 14:08:45;;;;;;;6.35;2.70;;;;;;;;;;5325135;27;20080;-67
2022/10/26 14:11:12;;;;;;;9.48;2.92;;;;;;;;;;5324537;27;20024;-69
2022/10/26 14:13:37;;;;;;;5.95;2.17;;;;;;;;;;5327502;27;20012;-68
2022/10/26 14:16:06;;;;;;;8.43;3.03;;;;;;;;;;5324947;27;20090;-70
2022/10/26 14:18:31;;;;;;;8.48;2.97;;;;;;;;;;5327229;27;20300;-69
2022/10/26 14:21:04;;;;;;;8.68;2.62;;;;;;;;;;5327924;27;20005;-69
2022/10/26 14:23:32;;;;;;;7.47;2.42;;;;;;;;;;5327080;27;20004;-70
2022/10/26 14:25:57;;;;;;;10.13;2.70;;;;;;;;;;5325987;27;20132;-69
2022/10/26 14:28:24;;;;;;;10.05;2.35;;;;;;;;;;5327704;27;20463;-69
2022/10/26 14:30:50;;;;;;;8.07;2.47;;;;;;;;;;5324667;27;20012;-69
2022/10/26 14:33:22;;;;;;;8.45;2.67;;;;;;;;;;5304640;27;20004;-69
2022/10/26 14:35:48;;;;;;;9.45;2.80;;;;;;;;;;5326953;27;20005;-69
2022/10/26 14:38:16;;;;;;;10.32;2.75;;;;;;;;;;5325629;27;20032;-70
2022/10/26 14:40:41;;;;;;;7.32;2.70;;;;;;;;;;5327124;27;20037;-68
2022/10/26 14:43:10;;;;;;;8.90;2.50;;;;;;;;;;5327445;27;20005;-69
2022/10/26 14:45:37;;;;;;;7.47;2.40;;;;;;;;;;5325077;27;20004;-67
2022/10/26 14:48:04;;;;;;;7.47;2.70;;;;;;;;;;5327492;27;20456;-69
2022/10/26 14:50:35;;;;;;;9.18;2.33;;;;;;;;;;5326295;27;20034;-70
2022/10/26 14:53:01;;;;;;;5.22;2.15;;;;;;;;;;5306881;27;20035;-69
2022/10/26 14:55:27;;;;;;;13.40;2.45;;;;;;;;;;5328745;27;20005;-70
2022/10/26 14:58:04;;;;;;;8.82;2.20;;;;;;;;;;5328126;27;20416;-71
2022/10/26 15:00:32;;;;;;;9.50;2.62;;;;;;;;;;5326094;27;20060;-69
2022/10/26 15:02:57;;;;;;;11.95;2.90;;;;;;;;;;5326426;27;20420;-69
2022/10/26 15:05:22;;;;;;;11.75;2.58;;;;;;;;;;5328257;27;20043;-70
2022/10/26 15:07:47;;;;;;;7.80;2.45;;;;;;;;;;5328314;27;20015;-70
2022/10/26 15:10:31;;;;;;;9.40;2.75;;;;;;;;;;5328412;27;20008;-69
2022/10/26 15:12:57;;;;;;;8.57;2.30;;;;;;;;;;5328272;27;20004;-68
2022/10/26 15:15:22;;;;;;;10.43;2.62;;;;;;;;;;5305983;27;20038;-70
2022/10/26 15:17:52;;;;;;;9.50;1.90;;;;;;;;;;5326608;27;20012;-68
2022/10/26 15:20:18;;;;;;;8.48;2.10;;;;;;;;;;5327326;27;20014;-70
2022/10/26 15:22:49;;;;;;;6.90;2.37;;;;;;;;;;5326233;27;20400;-68
2022/10/26 15:25:19;;;;;;;13.00;2.00;;;;;;;;;;5328957;27;20331;-68